sensor_id;sensor_type;location;lat;lon;timestamp;pressure;altitude;pressure_sealevel;temperature;humidity
3178;BME280;38141;42.666;23.344;2023-03-26T00:00:21;94159.22;;;11.05;100.00
3178;BME280;38141;42.666;23.344;2023-03-26T00:02:47;94175.00;;;11.14;100.00
3178;BME280;38141;42.666;23.344;2023-03-26T00:05:14;94170.84;;;11.02;100.00
3178;BME280;38141;42.666;23.344;2023-03-26T00:07:41;94182.03;;;11.08;100.00
3178;BME280;38141;42.666;23.344;2023-03-26T00:10:09;94185.25;;;10.89;100.00
3178;BME280;38141;42.666;23.344;2023-03-26T00:12:35;94154.75;;;10.81;100.00
3178;BME280;38141;42.666;23.344;2023-03-26T00:15:04;94172.81;;;10.98;100.00
3178;BME280;38141;42.666;23.344;2023-03-26T00:17:34;94170.44;;;11.04;100.00
3178;BME280;38141;42.666;23.344;2023-03-26T00:20:01;94147.47;;;10.75;100.00
3178;BME280;38141;42.666;23.344;2023-03-26T00:22:28;94147.81;;;10.80;100.00
3178;BME280;38141;42.666;23.344;2023-03-26T00:24:55;94136.53;;;10.89;100.00
3178;BME280;38141;42.666;23.344;2023-03-26T00:27:23;94161.25;;;10.91;100.00
3178;BME280;38141;42.666;23.344;2023-03-26T00:29:51;94160.34;;;11.11;100.00
3178;BME280;38141;42.666;23.344;2023-03-26T00:32:22;94148.78;;;11.04;100.00
3178;BME280;38141;42.666;23.344;2023-03-26T00:34:52;94146.53;;;10.95;100.00
3178;BME280;38141;42.666;23.344;2023-03-26T00:37:20;94153.00;;;11.08;100.00
3178;BME280;38141;42.666;23.344;2023-03-26T00:39:51;94061.13;;;10.43;100.00
3178;BME280;38141;42.666;23.344;2023-03-26T00:42:18;94144.19;;;11.01;100.00
3178;BME280;38141;42.666;23.344;2023-03-26T00:44:45;94144.25;;;10.94;100.00
3178;BME280;38141;42.666;23.344;2023-03-26T00:47:11;94145.41;;;10.93;100.00
3178;BME280;38141;42.666;23.344;2023-03-26T00:49:40;94150.03;;;10.92;100.00
3178;BME280;38141;42.666;23.344;2023-03-26T00:52:07;94144.69;;;10.85;100.00
3178;BME280;38141;42.666;23.344;2023-03-26T00:54:34;94148.56;;;10.84;100.00
3178;BME280;38141;42.666;23.344;2023-03-26T00:57:01;94139.69;;;10.77;100.00
3178;BME280;38141;42.666;23.344;2023-03-26T00:59:31;94143.59;;;10.76;100.00
3178;BME280;38141;42.666;23.344;2023-03-26T01:02:00;94137.06;;;10.69;100.00
3178;BME280;38141;42.666;23.344;2023-03-26T01:04:30;94140.13;;;10.68;100.00
3178;BME280;38141;42.666;23.344;2023-03-26T01:07:02;94146.28;;;10.79;100.00
3178;BME280;38141;42.666;23.344;2023-03-26T01:09:33;94133.94;;;10.75;100.00
3178;BME280;38141;42.666;23.344;2023-03-26T01:12:04;94153.59;;;10.82;100.00
3178;BME280;38141;42.666;23.344;2023-03-26T01:14:32;94133.56;;;10.69;100.00
3178;BME280;38141;42.666;23.344;2023-03-26T01:17:00;94144.38;;;10.76;100.00
3178;BME280;38141;42.666;23.344;2023-03-26T01:19:40;94148.66;;;10.66;100.00
3178;BME280;38141;42.666;23.344;2023-03-26T01:22:14;94150.59;;;10.66;100.00
3178;BME280;38141;42.666;23.344;2023-03-26T01:24:43;94166.00;;;10.76;100.00
3178;BME280;38141;42.666;23.344;2023-03-26T01:27:19;94159.50;;;10.66;100.00
3178;BME280;38141;42.666;23.344;2023-03-26T01:29:52;94169.53;;;10.66;100.00
3178;BME280;38141;42.666;23.344;2023-03-26T01:32:39;94150.66;;;10.55;100.00
3178;BME280;38141;42.666;23.344;2023-03-26T01:35:16;94177.25;;;10.71;100.00
3178;BME280;38141;42.666;23.344;2023-03-26T01:37:56;94168.72;;;10.73;100.00
3178;BME280;38141;42.666;23.344;2023-03-26T01:40:32;94136.72;;;10.60;100.00
3178;BME280;38141;42.666;23.344;2023-03-26T01:43:07;94139.81;;;10.59;100.00
3178;BME280;38141;42.666;23.344;2023-03-26T01:45:37;94178.63;;;10.97;100.00
3178;BME280;38141;42.666;23.344;2023-03-26T01:48:06;94171.75;;;10.82;100.00
3178;BME280;38141;42.666;23.344;2023-03-26T01:50:32;94170.66;;;10.68;100.00
3178;BME280;38141;42.666;23.344;2023-03-26T01:52:59;94177.59;;;10.73;100.00
3178;BME280;38141;42.666;23.344;2023-03-26T01:55:33;94188.41;;;10.73;100.00
3178;BME280;38141;42.666;23.344;2023-03-26T01:58:12;94189.13;;;10.88;100.00
3178;BME280;38141;42.666;23.344;2023-03-26T02:00:47;94182.13;;;10.90;100.00
3178;BME280;38141;42.666;23.344;2023-03-26T02:03:26;94174.00;;;10.90;100.00
3178;BME280;38141;42.666;23.344;2023-03-26T02:05:57;94161.53;;;10.48;100.00
3178;BME280;38141;42.666;23.344;2023-03-26T02:08:31;94170.25;;;10.74;100.00
3178;BME280;38141;42.666;23.344;2023-03-26T02:11:04;94181.81;;;10.78;100.00
3178;BME280;38141;42.666;23.344;2023-03-26T02:13:35;94185.78;;;10.62;100.00
3178;BME280;38141;42.666;23.344;2023-03-26T02:16:05;94161.53;;;10.41;100.00
3178;BME280;38141;42.666;23.344;2023-03-26T02:18:32;94158.91;;;10.31;100.00
3178;BME280;38141;42.666;23.344;2023-03-26T02:21:05;94182.84;;;10.36;100.00
3178;BME280;38141;42.666;23.344;2023-03-26T02:23:34;94185.53;;;10.36;100.00
3178;BME280;38141;42.666;23.344;2023-03-26T02:26:06;94181.22;;;10.49;100.00
3178;BME280;38141;42.666;23.344;2023-03-26T02:28:33;94174.19;;;10.58;100.00
3178;BME280;38141;42.666;23.344;2023-03-26T02:31:00;94178.16;;;10.43;100.00
3178;BME280;38141;42.666;23.344;2023-03-26T02:33:27;94160.88;;;10.12;100.00
3178;BME280;38141;42.666;23.344;2023-03-26T02:35:55;94196.00;;;10.23;100.00
3178;BME280;38141;42.666;23.344;2023-03-26T02:38:24;94174.03;;;10.07;100.00
3178;BME280;38141;42.666;23.344;2023-03-26T02:40:51;94174.00;;;10.10;100.00
3178;BME280;38141;42.666;23.344;2023-03-26T02:43:19;94190.97;;;10.14;100.00
3178;BME280;38141;42.666;23.344;2023-03-26T02:45:46;94182.50;;;10.19;100.00
3178;BME280;38141;42.666;23.344;2023-03-26T02:48:13;94195.22;;;10.26;100.00
3178;BME280;38141;42.666;23.344;2023-03-26T02:50:41;94182.50;;;10.09;100.00
3178;BME280;38141;42.666;23.344;2023-03-26T02:53:08;94158.66;;;9.79;100.00
3178;BME280;38141;42.666;23.344;2023-03-26T02:55:36;94201.81;;;10.11;100.00
3178;BME280;38141;42.666;23.344;2023-03-26T02:58:03;94206.47;;;9.93;100.00
3178;BME280;38141;42.666;23.344;2023-03-26T03:00:32;94210.38;;;9.85;100.00
3178;BME280;38141;42.666;23.344;2023-03-26T03:02:58;94208.41;;;9.81;100.00
3178;BME280;38141;42.666;23.344;2023-03-26T03:05:29;94211.13;;;9.85;100.00
3178;BME280;38141;42.666;23.344;2023-03-26T03:07:56;94204.19;;;9.77;100.00
3178;BME280;38141;42.666;23.344;2023-03-26T03:10:23;94203.81;;;9.86;100.00
3178;BME280;38141;42.666;23.344;2023-03-26T03:12:50;94213.81;;;9.92;100.00
3178;BME280;38141;42.666;23.344;2023-03-26T03:15:17;94187.22;;;9.69;100.00
3178;BME280;38141;42.666;23.344;2023-03-26T03:17:46;94188.00;;;9.80;100.00
3178;BME280;38141;42.666;23.344;2023-03-26T03:20:13;94211.91;;;9.78;100.00
3178;BME280;38141;42.666;23.344;2023-03-26T03:22:40;94220.81;;;9.65;100.00
3178;BME280;38141;42.666;23.344;2023-03-26T03:25:08;94198.06;;;9.52;100.00
3178;BME280;38141;42.666;23.344;2023-03-26T03:27:39;94215.41;;;9.58;100.00
3178;BME280;38141;42.666;23.344;2023-03-26T03:30:08;94223.91;;;9.53;100.00
3178;BME280;38141;42.666;23.344;2023-03-26T03:32:35;94216.59;;;9.53;100.00
3178;BME280;38141;42.666;23.344;2023-03-26T03:35:04;94226.59;;;9.53;100.00
3178;BME280;38141;42.666;23.344;2023-03-26T03:37:31;94146.41;;;9.00;100.00
3178;BME280;38141;42.666;23.344;2023-03-26T03:39:57;94221.56;;;9.55;100.00
3178;BME280;38141;42.666;23.344;2023-03-26T03:42:24;94223.53;;;9.58;100.00
3178;BME280;38141;42.666;23.344;2023-03-26T03:44:51;94220.81;;;9.58;100.00
3178;BME280;38141;42.666;23.344;2023-03-26T03:47:18;94213.88;;;9.57;100.00
3178;BME280;38141;42.666;23.344;2023-03-26T03:49:47;94173.38;;;9.14;100.00
3178;BME280;38141;42.666;23.344;2023-03-26T03:52:15;94228.91;;;9.61;100.00
3178;BME280;38141;42.666;23.344;2023-03-26T03:54:42;94234.72;;;9.67;100.00
3178;BME280;38141;42.666;23.344;2023-03-26T03:57:09;94239.69;;;9.90;100.00
3178;BME280;38141;42.666;23.344;2023-03-26T03:59:36;94219.25;;;9.78;100.00
3178;BME280;38141;42.666;23.344;2023-03-26T04:02:03;94247.41;;;9.77;100.00
3178;BME280;38141;42.666;23.344;2023-03-26T04:04:30;94215.00;;;9.73;100.00
3178;BME280;38141;42.666;23.344;2023-03-26T04:06:57;94238.19;;;9.67;100.00
3178;BME280;38141;42.666;23.344;2023-03-26T04:09:25;94235.06;;;9.69;100.00
3178;BME280;38141;42.666;23.344;2023-03-26T04:11:52;94240.47;;;9.72;100.00
3178;BME280;38141;42.666;23.344;2023-03-26T04:14:19;94250.53;;;9.61;100.00
3178;BME280;38141;42.666;23.344;2023-03-26T04:16:46;94248.19;;;9.63;100.00
3178;BME280;38141;42.666;23.344;2023-03-26T04:19:13;94267.13;;;9.67;100.00
3178;BME280;38141;42.666;23.344;2023-03-26T04:21:40;94268.25;;;9.69;100.00
3178;BME280;38141;42.666;23.344;2023-03-26T04:24:08;94284.06;;;9.60;100.00
3178;BME280;38141;42.666;23.344;2023-03-26T04:26:36;94291.03;;;9.44;100.00
3178;BME280;38141;42.666;23.344;2023-03-26T04:29:05;94291.00;;;9.54;100.00
3178;BME280;38141;42.666;23.344;2023-03-26T04:31:37;94281.38;;;9.35;100.00
3178;BME280;38141;42.666;23.344;2023-03-26T04:34:06;94309.53;;;9.59;100.00
3178;BME280;38141;42.666;23.344;2023-03-26T04:36:38;94305.69;;;9.74;100.00
3178;BME280;38141;42.666;23.344;2023-03-26T04:39:09;94227.38;;;9.21;100.00
3178;BME280;38141;42.666;23.344;2023-03-26T04:41:39;94250.50;;;9.33;100.00
3178;BME280;38141;42.666;23.344;2023-03-26T04:44:06;94249.75;;;9.25;100.00
3178;BME280;38141;42.666;23.344;2023-03-26T04:46:33;94318.03;;;9.65;100.00
3178;BME280;38141;42.666;23.344;2023-03-26T04:49:00;94324.97;;;9.66;100.00
3178;BME280;38141;42.666;23.344;2023-03-26T04:51:33;94244.31;;;9.18;100.00
3178;BME280;38141;42.666;23.344;2023-03-26T04:54:03;94331.91;;;9.63;100.00
3178;BME280;38141;42.666;23.344;2023-03-26T04:56:39;94323.44;;;9.72;100.00
3178;BME280;38141;42.666;23.344;2023-03-26T04:59:11;94318.78;;;9.72;100.00
3178;BME280;38141;42.666;23.344;2023-03-26T05:01:39;94325.75;;;9.70;100.00
3178;BME280;38141;42.666;23.344;2023-03-26T05:04:06;94319.19;;;9.71;100.00
3178;BME280;38141;42.666;23.344;2023-03-26T05:06:33;94321.13;;;9.74;100.00
3178;BME280;38141;42.666;23.344;2023-03-26T05:09:02;94303.34;;;10.33;100.00
3178;BME280;38141;42.666;23.344;2023-03-26T05:11:29;94318.53;;;11.69;100.00
3178;BME280;38141;42.666;23.344;2023-03-26T05:13:57;94309.66;;;12.91;85.89
3178;BME280;38141;42.666;23.344;2023-03-26T05:16:24;94332.97;;;13.80;75.79
3178;BME280;38141;42.666;23.344;2023-03-26T05:18:52;94329.56;;;14.22;70.99
3178;BME280;38141;42.666;23.344;2023-03-26T05:21:18;94323.28;;;14.92;64.72
3178;BME280;38141;42.666;23.344;2023-03-26T05:23:47;94323.53;;;15.56;61.37
3178;BME280;38141;42.666;23.344;2023-03-26T05:26:15;94315.28;;;15.60;59.32
3178;BME280;38141;42.666;23.344;2023-03-26T05:28:42;94323.94;;;16.07;59.09
3178;BME280;38141;42.666;23.344;2023-03-26T05:31:10;94339.81;;;16.61;57.71
3178;BME280;38141;42.666;23.344;2023-03-26T05:33:39;94279.22;;;16.78;55.93
3178;BME280;38141;42.666;23.344;2023-03-26T05:36:08;94349.06;;;16.79;56.49
3178;BME280;38141;42.666;23.344;2023-03-26T05:38:37;94340.56;;;16.13;57.99
3178;BME280;38141;42.666;23.344;2023-03-26T05:41:06;94334.28;;;16.93;55.88
3178;BME280;38141;42.666;23.344;2023-03-26T05:43:34;94351.72;;;17.53;54.42
3178;BME280;38141;42.666;23.344;2023-03-26T05:46:01;94361.75;;;17.85;53.37
3178;BME280;38141;42.666;23.344;2023-03-26T05:48:29;94335.50;;;17.46;53.31
3178;BME280;38141;42.666;23.344;2023-03-26T05:50:57;94360.25;;;17.14;54.22
3178;BME280;38141;42.666;23.344;2023-03-26T05:53:25;94327.94;;;16.96;54.29
3178;BME280;38141;42.666;23.344;2023-03-26T05:55:52;94364.78;;;16.75;56.49
3178;BME280;38141;42.666;23.344;2023-03-26T05:58:24;94255.44;;;16.63;54.69
3178;BME280;38141;42.666;23.344;2023-03-26T06:00:56;94357.38;;;17.46;53.24
3178;BME280;38141;42.666;23.344;2023-03-26T06:03:24;94354.78;;;17.55;52.84
3178;BME280;38141;42.666;23.344;2023-03-26T06:05:52;94349.94;;;17.47;52.23
3178;BME280;38141;42.666;23.344;2023-03-26T06:08:20;94315.41;;;17.11;51.89
3178;BME280;38141;42.666;23.344;2023-03-26T06:10:46;94348.22;;;17.11;51.87
3178;BME280;38141;42.666;23.344;2023-03-26T06:13:14;94309.34;;;16.30;53.20
3178;BME280;38141;42.666;23.344;2023-03-26T06:15:41;94345.56;;;16.79;53.58
3178;BME280;38141;42.666;23.344;2023-03-26T06:18:08;94334.44;;;17.15;52.07
3178;BME280;38141;42.666;23.344;2023-03-26T06:20:36;94325.59;;;17.11;51.62
3178;BME280;38141;42.666;23.344;2023-03-26T06:23:04;94347.69;;;17.16;51.38
3178;BME280;38141;42.666;23.344;2023-03-26T06:25:30;94312.19;;;17.42;51.41
3178;BME280;38141;42.666;23.344;2023-03-26T06:28:00;94350.34;;;18.37;48.94
3178;BME280;38141;42.666;23.344;2023-03-26T06:30:27;94344.03;;;19.09;47.18
3178;BME280;38141;42.666;23.344;2023-03-26T06:32:54;94314.38;;;19.38;45.70
3178;BME280;38141;42.666;23.344;2023-03-26T06:35:20;94348.44;;;19.50;45.61
3178;BME280;38141;42.666;23.344;2023-03-26T06:37:47;94340.06;;;17.78;47.86
3178;BME280;38141;42.666;23.344;2023-03-26T06:40:15;94350.16;;;18.79;47.19
3178;BME280;38141;42.666;23.344;2023-03-26T06:42:45;94341.47;;;18.93;46.70
3178;BME280;38141;42.666;23.344;2023-03-26T06:45:12;94343.34;;;18.11;46.84
3178;BME280;38141;42.666;23.344;2023-03-26T06:47:39;94341.59;;;17.66;47.75
3178;BME280;38141;42.666;23.344;2023-03-26T06:50:07;94343.16;;;17.80;48.39
3178;BME280;38141;42.666;23.344;2023-03-26T06:52:34;94355.16;;;17.95;47.83
3178;BME280;38141;42.666;23.344;2023-03-26T06:55:00;94362.63;;;17.95;47.43
3178;BME280;38141;42.666;23.344;2023-03-26T06:57:28;94362.16;;;17.29;48.75
3178;BME280;38141;42.666;23.344;2023-03-26T06:59:55;94363.59;;;18.13;47.98
3178;BME280;38141;42.666;23.344;2023-03-26T07:02:22;94369.63;;;18.08;46.68
3178;BME280;38141;42.666;23.344;2023-03-26T07:04:49;94367.09;;;17.34;48.75
3178;BME280;38141;42.666;23.344;2023-03-26T07:07:15;94386.16;;;18.43;46.63
3178;BME280;38141;42.666;23.344;2023-03-26T07:09:44;94368.84;;;19.05;44.78
3178;BME280;38141;42.666;23.344;2023-03-26T07:12:12;94385.56;;;19.42;44.56
3178;BME280;38141;42.666;23.344;2023-03-26T07:14:40;94366.25;;;19.67;43.57
3178;BME280;38141;42.666;23.344;2023-03-26T07:17:08;94379.91;;;20.41;43.02
3178;BME280;38141;42.666;23.344;2023-03-26T07:19:35;94305.56;;;19.65;43.00
3178;BME280;38141;42.666;23.344;2023-03-26T07:22:02;94365.97;;;20.36;41.65
3178;BME280;38141;42.666;23.344;2023-03-26T07:24:29;94349.00;;;20.86;40.92
3178;BME280;38141;42.666;23.344;2023-03-26T07:27:01;94370.59;;;21.24;40.30
3178;BME280;38141;42.666;23.344;2023-03-26T07:29:34;94364.19;;;20.11;41.47
3178;BME280;38141;42.666;23.344;2023-03-26T07:32:08;94339.50;;;19.80;41.69
3178;BME280;38141;42.666;23.344;2023-03-26T07:34:45;94366.84;;;19.93;42.11
3178;BME280;38141;42.666;23.344;2023-03-26T07:37:23;94360.38;;;20.39;41.28
3178;BME280;38141;42.666;23.344;2023-03-26T07:39:56;94354.63;;;20.65;40.81
3178;BME280;38141;42.666;23.344;2023-03-26T07:42:35;94360.25;;;20.52;41.36
3178;BME280;38141;42.666;23.344;2023-03-26T07:45:15;94359.69;;;20.84;40.93
3178;BME280;38141;42.666;23.344;2023-03-26T07:47:47;94365.44;;;20.19;41.58
3178;BME280;38141;42.666;23.344;2023-03-26T07:50:19;94363.13;;;20.39;41.03
3178;BME280;38141;42.666;23.344;2023-03-26T07:52:50;94365.50;;;20.96;40.53
3178;BME280;38141;42.666;23.344;2023-03-26T07:55:18;94361.97;;;22.28;38.23
3178;BME280;38141;42.666;23.344;2023-03-26T07:57:53;94361.41;;;21.37;39.11
3178;BME280;38141;42.666;23.344;2023-03-26T08:00:26;94357.91;;;21.27;39.06
3178;BME280;38141;42.666;23.344;2023-03-26T08:03:09;94360.97;;;23.06;36.72
3178;BME280;38141;42.666;23.344;2023-03-26T08:05:42;94358.94;;;23.30;35.78
3178;BME280;38141;42.666;23.344;2023-03-26T08:08:15;94349.13;;;23.97;33.33
3178;BME280;38141;42.666;23.344;2023-03-26T08:10:57;94348.25;;;25.97;31.74
3178;BME280;38141;42.666;23.344;2023-03-26T08:13:34;94353.31;;;25.52;32.02
3178;BME280;38141;42.666;23.344;2023-03-26T08:16:09;94350.66;;;26.83;31.08
3178;BME280;38141;42.666;23.344;2023-03-26T08:18:45;94350.63;;;27.26;29.90
3178;BME280;38141;42.666;23.344;2023-03-26T08:21:19;94350.28;;;26.65;29.38
3178;BME280;38141;42.666;23.344;2023-03-26T08:24:03;94347.19;;;25.22;31.03
3178;BME280;38141;42.666;23.344;2023-03-26T08:26:40;94354.66;;;25.57;30.27
3178;BME280;38141;42.666;23.344;2023-03-26T08:29:18;94360.19;;;25.37;30.28
3178;BME280;38141;42.666;23.344;2023-03-26T08:31:48;94356.00;;;24.16;30.32
3178;BME280;38141;42.666;23.344;2023-03-26T08:34:17;94359.66;;;23.16;31.84
3178;BME280;38141;42.666;23.344;2023-03-26T08:36:47;94346.41;;;24.47;30.94
3178;BME280;38141;42.666;23.344;2023-03-26T08:39:14;94354.50;;;26.54;28.42
3178;BME280;38141;42.666;23.344;2023-03-26T08:57:06;94350.88;;;28.59;26.78
3178;BME280;38141;42.666;23.344;2023-03-26T08:59:58;94348.16;;;29.39;25.22
3178;BME280;38141;42.666;23.344;2023-03-26T09:03:01;94343.34;;;31.35;24.09
3178;BME280;38141;42.666;23.344;2023-03-26T09:06:06;94352.19;;;30.67;23.96
3178;BME280;38141;42.666;23.344;2023-03-26T09:12:15;94356.75;;;31.18;23.46
3178;BME280;38141;42.666;23.344;2023-03-26T09:15:07;94358.59;;;30.86;23.68
3178;BME280;38141;42.666;23.344;2023-03-26T09:18:07;94335.91;;;30.95;23.36
3178;BME280;38141;42.666;23.344;2023-03-26T09:21:01;94341.41;;;29.76;24.01
3178;BME280;38141;42.666;23.344;2023-03-26T09:23:58;94351.50;;;32.14;22.18
3178;BME280;38141;42.666;23.344;2023-03-26T09:26:43;94316.94;;;33.15;21.49
3178;BME280;38141;42.666;23.344;2023-03-26T09:32:47;94336.03;;;33.16;20.92
3178;BME280;38141;42.666;23.344;2023-03-26T09:35:32;94312.78;;;29.70;22.52
3178;BME280;38141;42.666;23.344;2023-03-26T09:38:10;94341.81;;;31.34;21.65
3178;BME280;38141;42.666;23.344;2023-03-26T09:40:47;94339.00;;;34.72;19.73
3178;BME280;38141;42.666;23.344;2023-03-26T09:46:34;94318.84;;;30.15;23.11
3178;BME280;38141;42.666;23.344;2023-03-26T09:49:26;94324.16;;;32.97;21.33
3178;BME280;38141;42.666;23.344;2023-03-26T09:58:25;94320.84;;;30.79;23.44
3178;BME280;38141;42.666;23.344;2023-03-26T10:00:59;94309.41;;;29.41;23.94
3178;BME280;38141;42.666;23.344;2023-03-26T10:03:47;94312.25;;;29.71;23.69
3178;BME280;38141;42.666;23.344;2023-03-26T10:06:35;94310.38;;;26.99;25.84
3178;BME280;38141;42.666;23.344;2023-03-26T10:09:16;94298.78;;;26.21;26.11
3178;BME280;38141;42.666;23.344;2023-03-26T10:12:00;94295.81;;;26.25;26.65
3178;BME280;38141;42.666;23.344;2023-03-26T10:14:33;94292.44;;;26.94;26.01
3178;BME280;38141;42.666;23.344;2023-03-26T10:17:15;94287.19;;;27.13;26.05
3178;BME280;38141;42.666;23.344;2023-03-26T10:20:00;94281.56;;;25.08;28.07
3178;BME280;38141;42.666;23.344;2023-03-26T10:22:44;94260.38;;;25.51;27.30
3178;BME280;38141;42.666;23.344;2023-03-26T10:25:27;94268.63;;;24.59;28.82
3178;BME280;38141;42.666;23.344;2023-03-26T10:28:04;94267.75;;;23.98;29.11
3178;BME280;38141;42.666;23.344;2023-03-26T10:30:54;94230.22;;;25.07;27.40
3178;BME280;38141;42.666;23.344;2023-03-26T10:33:29;94249.81;;;24.84;27.13
3178;BME280;38141;42.666;23.344;2023-03-26T10:36:26;94245.84;;;25.10;26.17
3178;BME280;38141;42.666;23.344;2023-03-26T10:39:02;94245.91;;;25.62;25.89
3178;BME280;38141;42.666;23.344;2023-03-26T10:41:40;94240.59;;;25.64;25.41
3178;BME280;38141;42.666;23.344;2023-03-26T10:44:29;94238.88;;;24.74;26.95
3178;BME280;38141;42.666;23.344;2023-03-26T10:47:17;94239.94;;;25.23;26.87
3178;BME280;38141;42.666;23.344;2023-03-26T10:53:03;94218.56;;;25.81;25.71
3178;BME280;38141;42.666;23.344;2023-03-26T10:55:37;94221.19;;;24.87;26.49
3178;BME280;38141;42.666;23.344;2023-03-26T10:58:11;94189.66;;;23.68;27.89
3178;BME280;38141;42.666;23.344;2023-03-26T11:00:44;94220.44;;;23.61;28.22
3178;BME280;38141;42.666;23.344;2023-03-26T11:03:33;94222.06;;;24.58;26.66
3178;BME280;38141;42.666;23.344;2023-03-26T11:06:14;94198.31;;;24.11;26.10
3178;BME280;38141;42.666;23.344;2023-03-26T11:08:48;94211.97;;;24.95;26.04
3178;BME280;38141;42.666;23.344;2023-03-26T11:11:24;94202.97;;;24.19;27.14
3178;BME280;38141;42.666;23.344;2023-03-26T11:13:59;94204.63;;;23.03;27.12
3178;BME280;38141;42.666;23.344;2023-03-26T11:16:38;94203.69;;;23.50;27.07
3178;BME280;38141;42.666;23.344;2023-03-26T11:19:15;94202.97;;;23.84;26.51
3178;BME280;38141;42.666;23.344;2023-03-26T11:21:51;94188.06;;;23.32;26.96
3178;BME280;38141;42.666;23.344;2023-03-26T11:24:45;94200.13;;;23.05;27.72
3178;BME280;38141;42.666;23.344;2023-03-26T11:27:23;94204.63;;;22.65;28.19
3178;BME280;38141;42.666;23.344;2023-03-26T11:30:02;94191.34;;;21.83;27.99
3178;BME280;38141;42.666;23.344;2023-03-26T11:32:39;94196.44;;;22.32;27.15
3178;BME280;38141;42.666;23.344;2023-03-26T11:35:15;94191.72;;;22.47;27.05
3178;BME280;38141;42.666;23.344;2023-03-26T11:37:47;94180.53;;;23.33;26.50
3178;BME280;38141;42.666;23.344;2023-03-26T11:40:22;94181.84;;;22.16;28.25
3178;BME280;38141;42.666;23.344;2023-03-26T11:42:55;94183.03;;;23.45;27.06
3178;BME280;38141;42.666;23.344;2023-03-26T11:45:26;94163.47;;;22.90;27.39
3178;BME280;38141;42.666;23.344;2023-03-26T11:47:58;94141.91;;;21.88;27.60
3178;BME280;38141;42.666;23.344;2023-03-26T11:50:30;94153.59;;;22.84;27.15
3178;BME280;38141;42.666;23.344;2023-03-26T11:53:05;94145.78;;;23.26;26.74
3178;BME280;38141;42.666;23.344;2023-03-26T11:55:38;94146.00;;;22.79;26.26
3178;BME280;38141;42.666;23.344;2023-03-26T11:58:16;94140.09;;;23.15;26.10
3178;BME280;38141;42.666;23.344;2023-03-26T12:00:48;94128.38;;;22.91;26.75
3178;BME280;38141;42.666;23.344;2023-03-26T12:03:16;94107.78;;;22.09;27.31
3178;BME280;38141;42.666;23.344;2023-03-26T12:05:47;94129.63;;;21.65;28.26
3178;BME280;38141;42.666;23.344;2023-03-26T12:08:20;94121.31;;;22.22;27.61
3178;BME280;38141;42.666;23.344;2023-03-26T12:10:58;94116.63;;;21.66;27.42
3178;BME280;38141;42.666;23.344;2023-03-26T12:13:33;94103.56;;;21.76;27.39
3178;BME280;38141;42.666;23.344;2023-03-26T12:16:08;94112.31;;;21.74;27.58
3178;BME280;38141;42.666;23.344;2023-03-26T12:18:36;94107.31;;;22.49;26.20
3178;BME280;38141;42.666;23.344;2023-03-26T12:21:06;94107.91;;;22.15;26.03
3178;BME280;38141;42.666;23.344;2023-03-26T12:23:49;94093.06;;;21.98;26.36
3178;BME280;38141;42.666;23.344;2023-03-26T12:26:19;94074.38;;;21.45;26.86
3178;BME280;38141;42.666;23.344;2023-03-26T12:28:48;94073.19;;;20.95;28.05
3178;BME280;38141;42.666;23.344;2023-03-26T12:31:16;94079.25;;;21.17;28.13
3178;BME280;38141;42.666;23.344;2023-03-26T12:33:49;94076.50;;;20.66;27.94
3178;BME280;38141;42.666;23.344;2023-03-26T12:36:30;94068.38;;;21.23;27.38
3178;BME280;38141;42.666;23.344;2023-03-26T12:38:58;94067.66;;;21.04;27.75
3178;BME280;38141;42.666;23.344;2023-03-26T12:41:35;94060.00;;;21.17;27.31
3178;BME280;38141;42.666;23.344;2023-03-26T12:44:20;94055.66;;;20.32;27.00
3178;BME280;38141;42.666;23.344;2023-03-26T12:46:49;94066.66;;;20.93;25.98
3178;BME280;38141;42.666;23.344;2023-03-26T12:49:19;94062.53;;;20.88;26.24
3178;BME280;38141;42.666;23.344;2023-03-26T12:51:48;94053.34;;;20.91;26.19
3178;BME280;38141;42.666;23.344;2023-03-26T12:54:32;94033.22;;;20.85;25.99
3178;BME280;38141;42.666;23.344;2023-03-26T12:57:14;94063.53;;;20.67;25.47
3178;BME280;38141;42.666;23.344;2023-03-26T13:00:10;94052.53;;;20.67;25.42
3178;BME280;38141;42.666;23.344;2023-03-26T13:05:43;94039.31;;;20.47;26.08
3178;BME280;38141;42.666;23.344;2023-03-26T13:11:22;94038.38;;;20.50;26.22
3178;BME280;38141;42.666;23.344;2023-03-26T13:14:11;94040.53;;;20.19;26.05
3178;BME280;38141;42.666;23.344;2023-03-26T13:16:45;94022.38;;;20.21;25.78
3178;BME280;38141;42.666;23.344;2023-03-26T13:19:19;94031.41;;;19.85;26.08
3178;BME280;38141;42.666;23.344;2023-03-26T13:22:01;94036.16;;;19.94;26.12
3178;BME280;38141;42.666;23.344;2023-03-26T13:24:40;94016.94;;;19.85;25.90
3178;BME280;38141;42.666;23.344;2023-03-26T13:27:21;94022.56;;;19.63;26.20
3178;BME280;38141;42.666;23.344;2023-03-26T13:29:56;94017.22;;;19.60;26.25
3178;BME280;38141;42.666;23.344;2023-03-26T13:32:37;94037.50;;;20.08;26.37
3178;BME280;38141;42.666;23.344;2023-03-26T13:35:16;94024.69;;;19.86;25.44
3178;BME280;38141;42.666;23.344;2023-03-26T13:37:52;94037.03;;;19.91;25.87
3178;BME280;38141;42.666;23.344;2023-03-26T13:40:28;94030.50;;;19.79;25.90
3178;BME280;38141;42.666;23.344;2023-03-26T13:43:10;94024.41;;;19.66;25.58
3178;BME280;38141;42.666;23.344;2023-03-26T13:45:52;94021.13;;;19.31;25.70
3178;BME280;38141;42.666;23.344;2023-03-26T13:48:24;94023.88;;;19.40;25.49
3178;BME280;38141;42.666;23.344;2023-03-26T13:51:01;94012.94;;;19.49;25.33
3178;BME280;38141;42.666;23.344;2023-03-26T13:53:35;94017.47;;;19.34;24.68
3178;BME280;38141;42.666;23.344;2023-03-26T13:56:09;94004.19;;;19.24;25.17
3178;BME280;38141;42.666;23.344;2023-03-26T13:58:41;94021.09;;;19.22;25.67
3178;BME280;38141;42.666;23.344;2023-03-26T14:01:14;94014.94;;;19.00;26.11
3178;BME280;38141;42.666;23.344;2023-03-26T14:03:51;93992.09;;;18.85;25.96
3178;BME280;38141;42.666;23.344;2023-03-26T14:06:28;94009.03;;;19.01;25.76